createdAt,value
2018-08-16T00:00:21.469Z,10.60
2018-08-16T00:02:49.875Z,10.50
2018-08-16T00:05:18.006Z,10.50
2018-08-16T00:07:46.279Z,10.40
2018-08-16T00:10:15.823Z,10.40
2018-08-16T00:12:45.139Z,10.30
2018-08-16T00:15:14.344Z,10.40
2018-08-16T00:17:42.385Z,10.40
2018-08-16T00:20:11.221Z,10.40
2018-08-16T00:22:39.524Z,10.40
2018-08-16T00:25:08.286Z,10.40
2018-08-16T00:27:36.677Z,10.40
2018-08-16T00:30:09.437Z,10.30
2018-08-16T00:32:38.335Z,10.20
2018-08-16T00:35:06.582Z,10.20
2018-08-16T00:37:34.511Z,10.20
2018-08-16T00:40:02.983Z,10.10
2018-08-16T00:42:33.461Z,10.10
2018-08-16T00:45:02.279Z,10.10
2018-08-16T00:47:31.419Z,10.00
2018-08-16T00:49:59.520Z,10.00
2018-08-16T00:52:28.044Z,9.90
2018-08-16T00:54:56.524Z,10.00
2018-08-16T00:57:24.855Z,9.90
2018-08-16T00:59:52.553Z,9.90
2018-08-16T01:02:21.460Z,9.90
2018-08-16T01:04:49.871Z,9.90
2018-08-16T01:07:17.717Z,9.80
2018-08-16T01:09:45.489Z,9.80
2018-08-16T01:12:13.633Z,9.80
2018-08-16T01:14:42.439Z,9.80
2018-08-16T01:17:10.735Z,9.70
2018-08-16T01:19:38.443Z,9.70
2018-08-16T01:22:07.424Z,9.70
2018-08-16T01:24:35.485Z,9.70
2018-08-16T01:27:03.748Z,9.70
2018-08-16T01:29:31.821Z,9.60
2018-08-16T01:32:00.227Z,9.70
2018-08-16T01:34:28.073Z,9.70
2018-08-16T01:36:56.268Z,9.60
2018-08-16T01:39:24.326Z,9.60
2018-08-16T01:41:52.295Z,9.60
2018-08-16T01:44:20.213Z,9.60
2018-08-16T01:46:48.280Z,9.60
2018-08-16T01:49:25.423Z,9.50
2018-08-16T01:51:53.509Z,9.50
2018-08-16T01:54:22.316Z,9.40
2018-08-16T01:56:50.107Z,9.40
2018-08-16T01:59:18.418Z,9.40
2018-08-16T02:01:46.270Z,9.40
2018-08-16T02:04:14.365Z,9.40
2018-08-16T02:06:42.861Z,9.40
2018-08-16T02:09:10.996Z,9.30
2018-08-16T02:11:39.947Z,9.40
2018-08-16T02:14:08.550Z,9.30
2018-08-16T02:16:38.449Z,9.40
2018-08-16T02:19:06.323Z,9.30
2018-08-16T02:21:35.912Z,9.30
2018-08-16T02:24:04.915Z,9.30
2018-08-16T02:26:33.414Z,9.30
2018-08-16T02:29:02.385Z,9.30
2018-08-16T02:31:31.209Z,9.30
2018-08-16T02:33:59.360Z,9.30
2018-08-16T02:36:27.304Z,9.30
2018-08-16T02:38:55.611Z,9.20
2018-08-16T02:41:23.595Z,9.20
2018-08-16T02:43:51.868Z,9.20
2018-08-16T02:46:19.698Z,9.20
2018-08-16T02:48:47.876Z,9.10
2018-08-16T02:51:15.985Z,9.10
2018-08-16T02:53:43.789Z,9.00
2018-08-16T02:56:11.909Z,9.00
2018-08-16T02:58:39.719Z,9.00
2018-08-16T03:01:07.990Z,9.00
2018-08-16T03:03:35.870Z,9.00
2018-08-16T03:06:03.956Z,9.00
2018-08-16T03:08:31.971Z,9.00
2018-08-16T03:10:59.986Z,9.00
2018-08-16T03:13:28.621Z,8.90
2018-08-16T03:15:56.631Z,8.90
2018-08-16T03:18:24.855Z,8.90
2018-08-16T03:20:53.521Z,8.90
2018-08-16T03:23:21.490Z,9.00
2018-08-16T03:25:49.420Z,9.00
2018-08-16T03:28:17.439Z,9.00
2018-08-16T03:30:45.425Z,9.00
2018-08-16T03:33:13.556Z,9.00
2018-08-16T03:35:41.558Z,8.90
2018-08-16T03:38:09.613Z,8.90
2018-08-16T03:40:38.037Z,8.90
2018-08-16T03:43:05.793Z,8.90
2018-08-16T03:45:33.860Z,8.90
2018-08-16T03:48:02.084Z,8.90
2018-08-16T03:50:30.097Z,8.90
2018-08-16T03:52:57.951Z,8.90
2018-08-16T03:55:25.854Z,8.90
2018-08-16T03:57:53.984Z,8.80
2018-08-16T04:00:21.676Z,8.80
2018-08-16T04:02:49.765Z,8.80
2018-08-16T04:05:17.566Z,8.80
2018-08-16T04:07:45.412Z,8.80
2018-08-16T04:10:13.630Z,8.80
2018-08-16T04:12:41.551Z,8.80
2018-08-16T04:15:09.478Z,8.80
2018-08-16T04:17:37.604Z,8.80
2018-08-16T04:20:06.602Z,8.80
2018-08-16T04:22:35.379Z,8.80
2018-08-16T04:25:05.027Z,8.90
2018-08-16T04:27:32.736Z,8.90
2018-08-16T04:30:00.743Z,8.90
2018-08-16T04:32:29.619Z,8.90
2018-08-16T04:34:57.632Z,8.90
2018-08-16T04:37:26.023Z,9.00
2018-08-16T04:39:53.795Z,9.00
2018-08-16T04:42:22.132Z,9.10
2018-08-16T04:44:50.018Z,9.10
2018-08-16T04:47:17.996Z,9.10
2018-08-16T04:49:45.880Z,9.10
2018-08-16T04:52:14.683Z,9.20
2018-08-16T04:54:42.787Z,9.20
2018-08-16T04:57:10.768Z,9.20
2018-08-16T04:59:38.723Z,9.30
2018-08-16T05:02:06.898Z,9.40
2018-08-16T05:04:35.351Z,9.40
2018-08-16T05:07:03.353Z,9.50
2018-08-16T05:09:31.453Z,9.60
2018-08-16T05:11:59.445Z,9.60
2018-08-16T05:14:27.760Z,9.70
2018-08-16T05:16:55.592Z,9.80
2018-08-16T05:19:23.700Z,9.90
2018-08-16T05:21:51.643Z,9.90
2018-08-16T05:24:20.767Z,10.00
2018-08-16T05:26:48.866Z,10.10
2018-08-16T05:29:17.089Z,10.10
2018-08-16T05:31:45.995Z,10.20
2018-08-16T05:34:13.867Z,10.30
2018-08-16T05:36:41.826Z,10.40
2018-08-16T05:39:11.383Z,10.40
2018-08-16T05:41:39.823Z,10.50
2018-08-16T05:44:08.505Z,10.60
2018-08-16T05:46:37.509Z,10.70
2018-08-16T05:49:05.803Z,10.80
2018-08-16T05:51:34.348Z,10.90
2018-08-16T05:54:02.792Z,11.10
2018-08-16T05:56:30.905Z,11.30
2018-08-16T05:58:58.871Z,11.50
2018-08-16T06:01:26.817Z,11.80
2018-08-16T06:03:55.208Z,12.50
2018-08-16T06:06:23.599Z,13.30
2018-08-16T06:08:51.821Z,14.00
2018-08-16T06:11:19.939Z,14.30
2018-08-16T06:13:49.060Z,14.40
2018-08-16T06:16:17.091Z,14.50
2018-08-16T06:18:45.402Z,14.60
2018-08-16T06:21:13.915Z,14.70
2018-08-16T06:23:42.036Z,15.20
2018-08-16T06:26:11.055Z,16.00
2018-08-16T06:28:39.293Z,16.80
2018-08-16T06:31:07.272Z,17.60
2018-08-16T06:33:35.320Z,18.30
2018-08-16T06:36:03.612Z,19.00
2018-08-16T06:38:32.098Z,19.50
2018-08-16T06:41:00.371Z,20.10
2018-08-16T06:43:28.346Z,20.60
2018-08-16T06:45:57.017Z,21.00
2018-08-16T06:48:25.513Z,21.40
2018-08-16T06:50:53.865Z,21.70
2018-08-16T06:53:21.940Z,21.90
2018-08-16T06:55:50.527Z,22.10
2018-08-16T06:58:18.864Z,22.40
2018-08-16T07:00:47.816Z,22.60
2018-08-16T07:03:16.260Z,23.00
2018-08-16T07:05:44.752Z,23.30
2018-08-16T07:08:12.977Z,23.50
2018-08-16T07:10:41.467Z,23.80
2018-08-16T07:13:10.239Z,24.10
2018-08-16T07:15:38.375Z,24.10
2018-08-16T07:18:06.398Z,24.60
2018-08-16T07:20:34.527Z,24.50
2018-08-16T07:23:03.085Z,24.30
2018-08-16T07:25:31.374Z,24.10
2018-08-16T07:27:59.623Z,23.90
2018-08-16T07:30:27.810Z,23.80
2018-08-16T07:32:55.668Z,23.70
2018-08-16T07:35:23.908Z,23.70
2018-08-16T07:37:51.956Z,23.70
2018-08-16T07:40:20.808Z,23.80
2018-08-16T07:42:48.946Z,23.90
2018-08-16T07:45:16.992Z,24.10
2018-08-16T07:47:44.976Z,24.30
2018-08-16T07:50:13.028Z,24.50
2018-08-16T07:52:41.369Z,24.50
2018-08-16T07:55:10.171Z,24.60
2018-08-16T07:57:38.356Z,24.80
2018-08-16T08:00:10.781Z,24.90
2018-08-16T08:02:39.409Z,24.90
2018-08-16T08:05:07.719Z,24.90
2018-08-16T08:07:35.762Z,24.90
2018-08-16T08:10:04.124Z,24.90
2018-08-16T08:12:32.599Z,25.00
2018-08-16T08:15:01.387Z,25.10
2018-08-16T08:17:29.286Z,25.20
2018-08-16T08:19:57.266Z,25.10
2018-08-16T08:22:25.605Z,25.20
2018-08-16T08:24:54.198Z,25.20
2018-08-16T08:27:22.139Z,25.20
2018-08-16T08:29:50.361Z,25.30
2018-08-16T08:32:18.305Z,25.30
2018-08-16T08:34:46.212Z,25.20
2018-08-16T08:37:25.531Z,25.30
2018-08-16T08:39:53.581Z,25.50
2018-08-16T08:42:21.684Z,25.40
2018-08-16T08:44:50.528Z,25.30
2018-08-16T08:47:19.014Z,25.20
2018-08-16T08:49:47.186Z,25.30
2018-08-16T08:52:16.199Z,25.40
2018-08-16T08:54:56.578Z,25.40
2018-08-16T08:57:36.774Z,25.60
2018-08-16T09:00:06.600Z,25.70
2018-08-16T09:02:35.188Z,25.80
2018-08-16T09:05:04.318Z,25.90
2018-08-16T09:07:32.335Z,26.10
2018-08-16T09:11:18.674Z,26.00
2018-08-16T09:13:59.470Z,26.20
2018-08-16T09:16:29.757Z,26.30
2018-08-16T09:18:57.902Z,26.60
2018-08-16T09:21:26.187Z,26.90
2018-08-16T09:23:54.448Z,27.00
2018-08-16T09:26:28.321Z,27.10
2018-08-16T09:28:56.634Z,27.20
2018-08-16T09:31:36.647Z,27.10
2018-08-16T09:34:18.414Z,27.20
2018-08-16T09:36:46.446Z,27.30
2018-08-16T09:39:14.608Z,27.50
2018-08-16T09:41:44.241Z,27.60
2018-08-16T09:44:12.528Z,27.60
2018-08-16T09:46:57.895Z,27.70
2018-08-16T09:49:26.248Z,27.80
2018-08-16T09:51:54.776Z,27.90
2018-08-16T09:54:22.854Z,27.90
2018-08-16T09:56:51.594Z,27.90
2018-08-16T09:59:19.982Z,28.10
2018-08-16T10:01:47.801Z,28.40
2018-08-16T10:04:15.813Z,28.30
2018-08-16T10:06:44.149Z,28.20
2018-08-16T10:09:14.641Z,28.20
2018-08-16T10:11:43.161Z,28.30
2018-08-16T10:14:11.442Z,28.30
2018-08-16T10:16:39.356Z,28.20
2018-08-16T10:19:07.511Z,28.00
2018-08-16T10:21:36.842Z,27.90
2018-08-16T10:24:05.188Z,27.90
2018-08-16T10:26:33.705Z,27.80
2018-08-16T10:29:02.063Z,28.00
2018-08-16T10:31:30.200Z,28.20
2018-08-16T10:33:58.311Z,28.30
2018-08-16T10:36:26.946Z,28.30
2018-08-16T10:38:55.197Z,28.10
2018-08-16T10:41:23.790Z,28.00
2018-08-16T10:43:51.883Z,28.30
2018-08-16T10:46:19.760Z,28.50
2018-08-16T10:48:48.157Z,28.50
2018-08-16T10:51:16.306Z,28.50
2018-08-16T10:53:44.635Z,28.40
2018-08-16T10:56:13.018Z,28.20
2018-08-16T10:58:41.995Z,28.10
2018-08-16T11:01:10.221Z,28.30
2018-08-16T11:03:38.129Z,28.40
2018-08-16T11:06:06.208Z,28.40
2018-08-16T11:08:34.538Z,28.30
2018-08-16T11:11:02.940Z,28.30
2018-08-16T11:13:32.114Z,28.40
2018-08-16T11:16:00.180Z,28.30
2018-08-16T11:18:28.474Z,28.30
2018-08-16T11:20:56.782Z,28.50
2018-08-16T11:23:24.881Z,28.70
2018-08-16T11:25:52.884Z,28.80
2018-08-16T11:28:21.631Z,28.70
2018-08-16T11:30:50.156Z,28.80
2018-08-16T11:33:18.426Z,28.80
2018-08-16T11:35:46.660Z,28.40
2018-08-16T11:38:14.681Z,28.50
2018-08-16T11:40:42.666Z,28.60
2018-08-16T11:43:10.481Z,28.60
2018-08-16T11:45:38.536Z,28.70
2018-08-16T11:48:06.507Z,29.00
2018-08-16T11:50:34.639Z,28.90
2018-08-16T11:53:02.720Z,28.90
2018-08-16T11:55:31.103Z,29.10
2018-08-16T11:57:59.173Z,29.20
2018-08-16T12:00:27.607Z,29.30
2018-08-16T12:02:56.228Z,29.40
2018-08-16T12:05:24.631Z,29.60
2018-08-16T12:07:52.542Z,29.70
2018-08-16T12:10:20.807Z,29.80
2018-08-16T12:12:48.930Z,29.80
2018-08-16T12:15:17.585Z,29.90
2018-08-16T12:17:46.174Z,29.80
2018-08-16T12:20:15.416Z,29.60
2018-08-16T12:22:43.868Z,29.60
2018-08-16T12:25:12.213Z,29.60
2018-08-16T12:27:40.306Z,29.80
2018-08-16T12:30:09.193Z,29.90
2018-08-16T12:32:38.613Z,30.10
2018-08-16T12:35:07.428Z,30.10
2018-08-16T12:37:35.683Z,29.90
2018-08-16T12:40:05.370Z,29.70
2018-08-16T12:42:34.252Z,29.60
2018-08-16T12:45:02.314Z,29.50
2018-08-16T12:47:30.625Z,29.40
2018-08-16T12:49:58.907Z,29.50
2018-08-16T12:52:27.863Z,29.60
2018-08-16T12:54:57.772Z,29.50
2018-08-16T12:57:26.094Z,29.40
2018-08-16T12:59:54.309Z,28.90
2018-08-16T13:02:22.960Z,28.80
2018-08-16T13:04:51.108Z,28.90
2018-08-16T13:07:19.267Z,29.00
2018-08-16T13:09:47.260Z,29.20
2018-08-16T13:12:15.524Z,29.50
2018-08-16T13:14:43.886Z,29.70
2018-08-16T13:17:12.768Z,29.80
2018-08-16T13:19:41.468Z,29.80
2018-08-16T13:22:09.658Z,29.70
2018-08-16T13:24:38.039Z,29.80
2018-08-16T13:27:06.669Z,29.80
2018-08-16T13:29:34.821Z,29.80
2018-08-16T13:32:03.128Z,29.80
2018-08-16T13:34:31.407Z,29.80
2018-08-16T13:37:00.284Z,30.00
2018-08-16T13:39:29.091Z,29.80
2018-08-16T13:41:57.385Z,29.70
2018-08-16T13:44:25.660Z,29.60
2018-08-16T13:46:54.159Z,29.70
2018-08-16T13:49:22.517Z,29.80
2018-08-16T13:51:53.059Z,30.00
2018-08-16T13:54:21.037Z,30.00
2018-08-16T13:56:49.894Z,30.20
2018-08-16T13:59:18.299Z,30.20
2018-08-16T14:01:46.274Z,30.20
2018-08-16T14:04:14.740Z,30.10
2018-08-16T14:06:43.113Z,30.10
2018-08-16T14:09:12.104Z,30.10
2018-08-16T14:11:40.336Z,30.00
2018-08-16T14:14:09.185Z,29.90
2018-08-16T14:16:37.650Z,29.80
2018-08-16T14:19:06.841Z,29.90
2018-08-16T14:21:36.610Z,29.80
2018-08-16T14:24:05.087Z,29.90
2018-08-16T14:26:33.654Z,30.00
2018-08-16T14:29:01.822Z,30.00
2018-08-16T14:31:31.114Z,30.00
2018-08-16T14:33:58.979Z,30.00
2018-08-16T14:36:27.915Z,30.00
2018-08-16T14:38:56.328Z,30.00
2018-08-16T14:41:24.489Z,30.00
2018-08-16T14:43:52.890Z,30.10
2018-08-16T14:46:20.846Z,30.20
2018-08-16T14:48:49.146Z,30.30
2018-08-16T14:51:17.377Z,30.40
2018-08-16T14:53:45.372Z,30.40
2018-08-16T14:56:13.078Z,30.40
2018-08-16T14:58:41.566Z,30.30
2018-08-16T15:01:09.566Z,30.20
2018-08-16T15:03:38.089Z,30.10
2018-08-16T15:06:06.509Z,30.10
2018-08-16T15:08:34.547Z,30.00
2018-08-16T15:11:03.011Z,30.00
2018-08-16T15:13:32.021Z,30.00
2018-08-16T15:16:00.750Z,30.00
2018-08-16T15:18:29.007Z,30.00
2018-08-16T15:20:58.003Z,30.10
2018-08-16T15:23:26.157Z,30.10
2018-08-16T15:25:54.570Z,30.10
2018-08-16T15:28:22.684Z,30.10
2018-08-16T15:30:51.357Z,30.00
2018-08-16T15:33:19.994Z,29.90
2018-08-16T15:35:48.105Z,29.90
2018-08-16T15:38:15.956Z,30.00
2018-08-16T15:40:44.169Z,29.80
2018-08-16T15:43:12.369Z,29.60
2018-08-16T15:45:40.529Z,29.50
2018-08-16T15:48:12.853Z,29.40
2018-08-16T15:50:42.866Z,29.50
2018-08-16T15:53:11.113Z,29.40
2018-08-16T15:55:39.165Z,29.50
2018-08-16T15:58:08.016Z,29.50
2018-08-16T16:00:36.262Z,29.40
2018-08-16T16:03:04.492Z,29.50
2018-08-16T16:05:33.653Z,29.40
2018-08-16T16:08:01.685Z,29.40
2018-08-16T16:10:29.939Z,29.20
2018-08-16T16:12:59.552Z,29.20
2018-08-16T16:15:28.419Z,29.10
2018-08-16T16:17:57.147Z,29.10
2018-08-16T16:20:25.831Z,29.00
2018-08-16T16:22:54.736Z,29.00
2018-08-16T16:25:22.972Z,28.90
2018-08-16T16:27:51.319Z,29.00
2018-08-16T16:30:19.470Z,29.00
2018-08-16T16:32:47.547Z,29.10
2018-08-16T16:35:15.829Z,29.10
2018-08-16T16:37:43.951Z,29.10
2018-08-16T16:40:11.950Z,29.00
2018-08-16T16:42:40.928Z,28.90
2018-08-16T16:45:09.074Z,28.60
2018-08-16T16:47:37.124Z,28.40
2018-08-16T16:50:06.049Z,28.10
2018-08-16T16:52:35.504Z,27.80
2018-08-16T16:55:03.901Z,27.60
2018-08-16T16:57:31.810Z,27.50
2018-08-16T17:00:00.144Z,27.50
2018-08-16T17:02:29.004Z,27.50
2018-08-16T17:04:57.650Z,27.20
2018-08-16T17:07:26.150Z,27.10
2018-08-16T17:09:54.271Z,27.10
2018-08-16T17:12:23.351Z,26.90
2018-08-16T17:14:51.949Z,26.80
2018-08-16T17:17:20.087Z,26.60
2018-08-16T17:19:49.243Z,26.60
2018-08-16T17:22:17.815Z,26.30
2018-08-16T17:24:45.745Z,26.10
2018-08-16T17:27:14.187Z,26.00
2018-08-16T17:29:42.238Z,25.80
2018-08-16T17:32:10.429Z,25.60
2018-08-16T17:34:38.448Z,25.40
2018-08-16T17:37:07.100Z,25.30
2018-08-16T17:39:34.986Z,25.20
2018-08-16T17:42:03.325Z,25.00
2018-08-16T17:44:31.428Z,24.80
2018-08-16T17:46:59.345Z,24.60
2018-08-16T17:49:27.334Z,24.40
2018-08-16T17:51:55.295Z,24.30
2018-08-16T17:54:23.267Z,24.20
2018-08-16T17:56:51.686Z,24.00
2018-08-16T17:59:20.451Z,23.90
2018-08-16T18:01:48.903Z,23.80
2018-08-16T18:04:17.098Z,23.60
2018-08-16T18:06:45.691Z,23.50
2018-08-16T18:09:14.801Z,23.40
2018-08-16T18:11:44.696Z,23.30
2018-08-16T18:14:16.987Z,23.10
2018-08-16T18:16:44.979Z,23.00
2018-08-16T18:19:12.747Z,22.80
2018-08-16T18:21:41.072Z,22.80
2018-08-16T18:24:09.209Z,22.60
2018-08-16T18:26:37.919Z,22.50
2018-08-16T18:29:07.125Z,22.40
2018-08-16T18:31:37.684Z,22.30
2018-08-16T18:34:06.931Z,22.10
2018-08-16T18:36:38.741Z,22.00
2018-08-16T18:39:08.624Z,21.80
2018-08-16T18:41:40.089Z,21.60
2018-08-16T18:44:08.763Z,21.50
2018-08-16T18:46:38.624Z,21.40
2018-08-16T18:49:07.564Z,21.30
2018-08-16T18:51:37.713Z,21.20
2018-08-16T18:54:06.740Z,21.10
2018-08-16T18:56:36.413Z,20.90
2018-08-16T18:59:04.857Z,20.80
2018-08-16T19:01:33.017Z,20.60
2018-08-16T19:04:01.220Z,20.50
2018-08-16T19:06:29.848Z,20.40
2018-08-16T19:08:58.085Z,20.30
2018-08-16T19:11:26.742Z,20.20
2018-08-16T19:13:55.470Z,20.00
2018-08-16T19:16:24.786Z,19.90
2018-08-16T19:18:53.330Z,19.70
2018-08-16T19:21:21.440Z,19.60
2018-08-16T19:23:50.296Z,19.50
2018-08-16T19:26:18.608Z,19.40
2018-08-16T19:28:47.135Z,19.30
2018-08-16T19:31:16.092Z,19.30
2018-08-16T19:33:44.451Z,19.20
2018-08-16T19:36:13.102Z,19.10
2018-08-16T19:38:41.940Z,18.90
2018-08-16T19:41:10.167Z,18.80
2018-08-16T19:43:38.445Z,18.80
2018-08-16T19:46:06.727Z,18.60
2018-08-16T19:48:35.551Z,18.50
2018-08-16T19:51:04.809Z,18.40
2018-08-16T19:53:32.774Z,18.40
2018-08-16T19:56:02.009Z,18.20
2018-08-16T19:58:30.806Z,18.20
2018-08-16T20:00:59.596Z,18.10
2018-08-16T20:03:28.147Z,18.00
2018-08-16T20:05:56.081Z,18.00
2018-08-16T20:08:23.848Z,17.90
2018-08-16T20:10:52.027Z,17.80
2018-08-16T20:13:20.802Z,17.80
2018-08-16T20:15:48.727Z,17.60
2018-08-16T20:18:16.871Z,17.50
2018-08-16T20:20:45.697Z,17.50
2018-08-16T20:23:13.726Z,17.30
2018-08-16T20:25:42.708Z,17.30
2018-08-16T20:28:10.951Z,17.10
2018-08-16T20:30:39.537Z,17.10
2018-08-16T20:33:07.610Z,17.00
2018-08-16T20:35:36.052Z,16.90
2018-08-16T20:38:04.180Z,16.80
2018-08-16T20:40:32.303Z,16.80
2018-08-16T20:43:02.182Z,16.80
2018-08-16T20:45:30.252Z,16.70
2018-08-16T20:47:58.498Z,16.70
2018-08-16T20:50:27.632Z,16.70
2018-08-16T20:52:55.630Z,16.60
2018-08-16T20:55:24.217Z,16.60
2018-08-16T20:57:52.588Z,16.60
2018-08-16T21:00:21.742Z,16.50
2018-08-16T21:02:50.655Z,16.40
2018-08-16T21:05:19.146Z,16.40
2018-08-16T21:07:47.460Z,16.40
2018-08-16T21:10:16.164Z,16.30
2018-08-16T21:12:44.329Z,16.30
2018-08-16T21:15:13.124Z,16.20
2018-08-16T21:17:41.043Z,16.10
2018-08-16T21:20:09.370Z,16.00
2018-08-16T21:22:38.475Z,16.00
2018-08-16T21:25:07.867Z,15.90
2018-08-16T21:27:36.400Z,15.80
2018-08-16T21:30:05.829Z,15.80
2018-08-16T21:32:34.334Z,15.80
2018-08-16T21:35:02.286Z,15.80
2018-08-16T21:37:30.702Z,15.70
2018-08-16T21:39:58.656Z,15.70
2018-08-16T21:42:26.711Z,15.70
2018-08-16T21:44:54.790Z,15.60
2018-08-16T21:47:22.925Z,15.60
2018-08-16T21:49:51.957Z,15.60
2018-08-16T21:52:20.544Z,15.60
2018-08-16T21:54:48.392Z,15.50
2018-08-16T21:57:16.840Z,15.30
2018-08-16T21:59:44.696Z,15.30
2018-08-16T22:02:12.854Z,15.30
2018-08-16T22:04:40.693Z,15.30
2018-08-16T22:07:15.366Z,15.30
2018-08-16T22:09:43.167Z,15.20
2018-08-16T22:12:11.745Z,15.10
2018-08-16T22:14:39.880Z,15.10
2018-08-16T22:17:08.014Z,15.10
2018-08-16T22:19:36.161Z,15.00
2018-08-16T22:22:04.000Z,15.00
2018-08-16T22:24:31.956Z,15.00
2018-08-16T22:26:59.822Z,14.90
2018-08-16T22:29:27.657Z,14.90
2018-08-16T22:31:55.582Z,14.90
2018-08-16T22:34:23.900Z,14.90
2018-08-16T22:36:51.979Z,14.80
2018-08-16T22:39:20.009Z,14.80
2018-08-16T22:41:48.204Z,14.70
2018-08-16T22:44:16.135Z,14.70
2018-08-16T22:46:43.968Z,14.60
2018-08-16T22:49:12.225Z,14.50
2018-08-16T22:51:40.840Z,14.50
2018-08-16T22:54:09.071Z,14.40
2018-08-16T22:56:37.309Z,14.50
2018-08-16T22:59:05.722Z,14.40
2018-08-16T23:01:34.234Z,14.40
2018-08-16T23:04:02.702Z,14.40
2018-08-16T23:06:30.848Z,14.30
2018-08-16T23:08:58.776Z,14.30
2018-08-16T23:11:26.940Z,14.30
2018-08-16T23:13:55.480Z,14.30
2018-08-16T23:16:23.863Z,14.20
2018-08-16T23:18:51.686Z,14.20
2018-08-16T23:21:20.216Z,14.20
2018-08-16T23:23:48.354Z,14.20
2018-08-16T23:26:16.046Z,14.20
2018-08-16T23:28:43.948Z,14.10
2018-08-16T23:31:12.326Z,14.10
2018-08-16T23:33:40.087Z,14.10
2018-08-16T23:36:08.246Z,14.10
2018-08-16T23:38:36.243Z,14.00
2018-08-16T23:41:04.232Z,14.00
2018-08-16T23:43:31.996Z,14.00
2018-08-16T23:46:00.221Z,13.90
2018-08-16T23:48:30.570Z,13.90
2018-08-16T23:50:58.870Z,13.90
2018-08-16T23:53:26.913Z,13.90
2018-08-16T23:55:55.214Z,13.90
2018-08-16T23:58:23.281Z,13.90
